createdAt,value
2023-04-19T00:00:11.674Z,64.15
2023-04-19T00:03:14.640Z,64.30
2023-04-19T00:06:17.447Z,64.27
2023-04-19T00:09:19.025Z,64.07
2023-04-19T00:12:20.580Z,64.11
2023-04-19T00:15:22.125Z,64.09
2023-04-19T00:18:23.642Z,63.81
2023-04-19T00:21:25.112Z,64.28
2023-04-19T00:24:26.597Z,64.05
2023-04-19T00:27:28.123Z,64.19
2023-04-19T00:30:29.649Z,64.06
2023-04-19T00:33:33.091Z,64.27
2023-04-19T00:36:34.700Z,64.19
2023-04-19T00:39:36.213Z,64.34
2023-04-19T00:42:39.863Z,64.77
2023-04-19T00:45:41.509Z,64.53
2023-04-19T00:48:43.117Z,64.09
2023-04-19T00:51:48.017Z,64.29
2023-04-19T00:54:49.822Z,63.96
2023-04-19T00:57:52.253Z,64.35
2023-04-19T01:00:53.930Z,64.13
2023-04-19T01:03:55.738Z,64.43
2023-04-19T01:06:57.410Z,64.51
2023-04-19T01:09:58.962Z,63.95
2023-04-19T01:13:00.494Z,64.32
2023-04-19T01:16:02.061Z,64.21
2023-04-19T01:19:03.782Z,64.64
2023-04-19T01:22:06.506Z,64.33
2023-04-19T01:25:08.768Z,63.86
2023-04-19T01:28:10.404Z,62.62
2023-04-19T01:31:11.971Z,62.61
2023-04-19T01:34:14.023Z,63.06
2023-04-19T01:37:15.761Z,62.59
2023-04-19T01:40:17.638Z,62.65
2023-04-19T01:43:19.167Z,62.66
2023-04-19T01:46:21.235Z,62.87
2023-04-19T01:49:22.931Z,63.07
2023-04-19T01:52:24.470Z,62.87
2023-04-19T01:55:26.450Z,62.66
2023-04-19T01:58:27.970Z,62.94
2023-04-19T02:01:29.731Z,63.02
2023-04-19T02:04:34.374Z,63.28
2023-04-19T02:07:35.977Z,63.03
2023-04-19T02:10:37.502Z,62.33
2023-04-19T02:13:38.954Z,61.88
2023-04-19T02:16:41.942Z,61.78
2023-04-19T02:19:43.603Z,62.25
2023-04-19T02:22:45.155Z,62.08
2023-04-19T02:25:46.731Z,61.86
2023-04-19T02:28:51.455Z,62.02
2023-04-19T02:31:52.962Z,62.30
2023-04-19T02:34:54.555Z,62.45
2023-04-19T02:37:56.063Z,62.01
2023-04-19T02:40:57.620Z,62.22
2023-04-19T02:43:59.088Z,62.83
2023-04-19T02:47:00.841Z,63.36
2023-04-19T02:50:02.684Z,63.28
2023-04-19T02:53:06.966Z,63.66
2023-04-19T02:56:09.319Z,63.19
2023-04-19T02:59:10.862Z,63.16
2023-04-19T03:02:12.502Z,63.18
2023-04-19T03:05:14.070Z,63.30
2023-04-19T03:08:15.609Z,63.27
2023-04-19T03:11:19.507Z,63.17
2023-04-19T03:14:21.749Z,63.26
2023-04-19T03:17:23.863Z,63.19
2023-04-19T03:20:26.801Z,63.59
2023-04-19T03:23:28.400Z,63.46
2023-04-19T03:26:32.540Z,63.57
2023-04-19T03:29:35.632Z,63.42
2023-04-19T03:32:41.105Z,63.56
2023-04-19T03:35:44.068Z,63.72
2023-04-19T03:38:46.541Z,63.78
2023-04-19T03:41:52.639Z,63.80
2023-04-19T03:45:20.333Z,63.95
2023-04-19T03:48:22.801Z,63.76
2023-04-19T03:51:24.881Z,63.73
2023-04-19T03:54:26.404Z,63.94
2023-04-19T03:57:28.355Z,63.88
2023-04-19T04:00:31.240Z,63.88
2023-04-19T04:03:35.787Z,63.71
2023-04-19T04:06:38.964Z,63.73
2023-04-19T04:09:40.834Z,63.69
2023-04-19T04:12:42.345Z,63.58
2023-04-19T04:15:47.384Z,63.62
2023-04-19T04:18:51.047Z,63.47
2023-04-19T04:21:52.593Z,63.25
2023-04-19T04:24:54.912Z,63.03
2023-04-19T04:28:01.104Z,63.22
2023-04-19T04:31:02.757Z,63.22
2023-04-19T04:34:09.178Z,63.17
2023-04-19T04:37:14.465Z,63.24
2023-04-19T04:40:16.733Z,63.09
2023-04-19T04:43:18.252Z,62.90
2023-04-19T04:46:20.047Z,62.62
2023-04-19T04:49:21.645Z,62.47
2023-04-19T04:52:23.328Z,62.27
2023-04-19T04:55:34.728Z,62.15
2023-04-19T04:58:37.073Z,62.17
2023-04-19T05:01:42.000Z,62.32
2023-04-19T05:04:43.956Z,62.39
2023-04-19T05:07:45.960Z,62.11
2023-04-19T05:10:47.758Z,61.94
2023-04-19T05:13:49.716Z,61.68
2023-04-19T05:16:51.706Z,61.72
2023-04-19T05:19:53.796Z,61.56
2023-04-19T05:22:59.146Z,61.42
2023-04-19T05:26:00.760Z,61.26
2023-04-19T05:29:03.823Z,57.79
2023-04-19T05:32:23.806Z,57.98
2023-04-19T05:35:30.091Z,56.42
2023-04-19T05:38:31.808Z,56.59
2023-04-19T05:41:36.637Z,56.51
2023-04-19T05:44:38.238Z,56.16
2023-04-19T05:47:40.720Z,55.28
2023-04-19T05:51:00.730Z,54.69
2023-04-19T05:54:28.605Z,53.94
2023-04-19T05:57:30.542Z,53.44
2023-04-19T06:00:32.609Z,53.33
2023-04-19T06:03:42.408Z,53.96
2023-04-19T06:06:44.371Z,53.94
2023-04-19T06:09:49.331Z,53.97
2023-04-19T06:12:51.025Z,54.29
2023-04-19T06:15:52.862Z,53.29
2023-04-19T06:18:54.405Z,53.21
2023-04-19T06:21:56.391Z,53.91
2023-04-19T06:24:57.865Z,53.92
2023-04-19T06:27:59.537Z,54.58
2023-04-19T06:31:02.079Z,54.50
2023-04-19T06:34:03.706Z,54.58
2023-04-19T06:37:05.257Z,55.00
2023-04-19T06:40:08.360Z,55.34
2023-04-19T06:43:09.881Z,54.88
2023-04-19T06:46:13.913Z,54.89
2023-04-19T06:49:15.668Z,55.11
2023-04-19T06:52:17.253Z,55.18
2023-04-19T06:55:18.730Z,55.03
2023-04-19T06:58:20.462Z,54.58
2023-04-19T07:01:21.951Z,56.37
2023-04-19T07:04:23.830Z,56.34
2023-04-19T07:07:25.334Z,56.25
2023-04-19T07:10:27.065Z,55.96
2023-04-19T07:13:28.657Z,55.95
2023-04-19T07:16:30.306Z,55.14
2023-04-19T07:19:32.117Z,54.87
2023-04-19T07:22:33.834Z,55.07
2023-04-19T07:25:35.351Z,55.00
2023-04-19T07:28:36.977Z,54.48
2023-04-19T07:31:38.669Z,53.85
2023-04-19T07:34:41.361Z,53.77
2023-04-19T07:37:42.922Z,53.83
2023-04-19T07:40:44.513Z,53.73
2023-04-19T07:43:46.087Z,53.18
2023-04-19T07:46:47.674Z,52.96
2023-04-19T07:49:55.779Z,53.14
2023-04-19T07:52:57.372Z,50.29
2023-04-19T07:55:58.908Z,48.38
2023-04-19T07:59:07.405Z,50.86
2023-04-19T08:02:10.764Z,52.09
2023-04-19T08:05:13.629Z,52.43
2023-04-19T08:08:15.235Z,52.58
2023-04-19T08:11:16.833Z,52.75
2023-04-19T08:14:32.341Z,52.40
2023-04-19T08:17:41.823Z,52.10
2023-04-19T08:20:46.476Z,51.81
2023-04-19T08:23:48.659Z,51.35
2023-04-19T08:26:54.095Z,51.23
2023-04-19T08:29:56.056Z,50.81
2023-04-19T08:32:57.718Z,51.01
2023-04-19T08:35:59.263Z,50.89
2023-04-19T08:39:05.731Z,50.57
2023-04-19T08:42:18.119Z,51.01
2023-04-19T08:45:32.771Z,50.25
2023-04-19T08:48:36.751Z,48.33
2023-04-19T08:51:38.627Z,44.72
2023-04-19T08:54:41.214Z,44.97
2023-04-19T08:57:42.762Z,43.87
2023-04-19T09:00:44.492Z,43.98
2023-04-19T09:04:02.610Z,44.03
2023-04-19T09:07:23.309Z,44.29
2023-04-19T09:10:26.228Z,44.01
2023-04-19T09:13:29.313Z,43.97
2023-04-19T09:16:30.776Z,44.17
2023-04-19T09:19:46.854Z,43.86
2023-04-19T09:23:07.522Z,43.73
2023-04-19T09:26:22.836Z,43.62
2023-04-19T09:29:26.884Z,43.07
2023-04-19T09:32:29.276Z,42.79
2023-04-19T09:35:45.910Z,42.27
2023-04-19T09:38:48.913Z,42.46
2023-04-19T09:41:52.392Z,43.03
2023-04-19T09:48:04.180Z,42.51
2023-04-19T09:51:10.572Z,42.86
2023-04-19T09:54:16.051Z,43.25
2023-04-19T09:57:17.682Z,43.53
2023-04-19T10:00:21.608Z,43.85
2023-04-19T10:03:29.357Z,44.54
2023-04-19T10:06:46.302Z,46.28
2023-04-19T10:10:11.766Z,46.17
2023-04-19T10:13:21.304Z,45.87
2023-04-19T10:16:24.090Z,46.42
2023-04-19T10:19:27.379Z,46.00
2023-04-19T10:22:29.063Z,45.94
2023-04-19T10:25:30.972Z,45.84
2023-04-19T10:28:36.053Z,46.14
2023-04-19T10:31:40.892Z,46.40
2023-04-19T10:34:42.569Z,46.52
2023-04-19T10:38:02.732Z,47.28
2023-04-19T10:41:05.477Z,47.81
2023-04-19T10:44:11.753Z,49.11
2023-04-19T10:47:14.633Z,49.63
2023-04-19T10:50:19.173Z,51.27
2023-04-19T10:53:50.711Z,51.41
2023-04-19T10:57:05.224Z,51.45
2023-04-19T11:00:21.038Z,49.87
2023-04-19T11:03:44.554Z,48.91
2023-04-19T11:06:52.701Z,50.75
2023-04-19T11:09:54.327Z,50.65
2023-04-19T11:12:56.596Z,50.63
2023-04-19T11:15:59.393Z,50.48
2023-04-19T11:19:01.221Z,50.80
2023-04-19T11:22:02.671Z,51.17
2023-04-19T11:25:10.563Z,51.83
2023-04-19T11:28:12.204Z,50.26
2023-04-19T11:31:13.955Z,51.87
2023-04-19T11:34:15.863Z,52.89
2023-04-19T11:37:17.720Z,53.19
2023-04-19T11:40:21.505Z,53.15
2023-04-19T11:43:23.010Z,52.80
2023-04-19T11:46:24.693Z,52.66
2023-04-19T11:49:31.049Z,52.70
2023-04-19T11:52:35.646Z,52.25
2023-04-19T11:55:37.244Z,52.06
2023-04-19T11:58:48.641Z,52.34
2023-04-19T12:01:50.266Z,52.03
2023-04-19T12:04:52.031Z,52.31
2023-04-19T12:08:04.059Z,52.50
2023-04-19T12:11:06.643Z,51.89
2023-04-19T12:14:13.481Z,52.01
2023-04-19T12:17:15.855Z,51.84
2023-04-19T12:20:29.508Z,52.05
2023-04-19T12:23:31.161Z,52.04
2023-04-19T12:26:32.718Z,52.40
2023-04-19T12:29:34.717Z,52.42
2023-04-19T12:32:36.257Z,52.16
2023-04-19T12:35:38.622Z,51.88
2023-04-19T12:38:40.563Z,51.14
2023-04-19T12:41:42.236Z,50.56
2023-04-19T12:44:43.753Z,50.29
2023-04-19T12:47:47.386Z,50.43
2023-04-19T12:50:48.960Z,50.66
2023-04-19T12:53:50.917Z,50.54
2023-04-19T12:56:52.424Z,50.22
2023-04-19T12:59:53.942Z,50.32
2023-04-19T13:02:55.793Z,49.95
2023-04-19T13:05:57.538Z,48.83
2023-04-19T13:09:01.024Z,48.80
2023-04-19T13:12:03.978Z,48.27
2023-04-19T13:15:06.117Z,48.82
2023-04-19T13:18:07.749Z,49.39
2023-04-19T13:21:09.311Z,49.62
2023-04-19T13:24:10.997Z,50.17
2023-04-19T13:27:12.687Z,50.63
2023-04-19T13:30:14.750Z,50.93
2023-04-19T13:33:16.224Z,50.60
2023-04-19T13:36:18.064Z,50.71
2023-04-19T13:39:19.541Z,50.39
2023-04-19T13:42:21.066Z,50.02
2023-04-19T13:45:22.656Z,50.11
2023-04-19T13:48:27.076Z,50.15
2023-04-19T13:51:38.820Z,50.08
2023-04-19T13:54:48.336Z,50.30
2023-04-19T13:57:49.967Z,50.44
2023-04-19T14:00:53.907Z,50.39
2023-04-19T14:03:55.657Z,50.39
2023-04-19T14:06:57.424Z,50.52
2023-04-19T14:09:58.909Z,50.76
2023-04-19T14:13:00.668Z,50.91
2023-04-19T14:16:02.199Z,51.36
2023-04-19T14:19:03.927Z,51.40
2023-04-19T14:22:06.205Z,50.93
2023-04-19T14:25:08.118Z,50.40
2023-04-19T14:28:09.631Z,50.18
2023-04-19T14:31:11.166Z,49.96
2023-04-19T14:34:12.678Z,49.92
2023-04-19T14:37:14.313Z,49.69
2023-04-19T14:40:17.767Z,49.69
2023-04-19T14:43:19.339Z,49.29
2023-04-19T14:46:21.054Z,48.97
2023-04-19T14:49:22.708Z,48.59
2023-04-19T14:52:24.619Z,48.60
2023-04-19T14:55:27.842Z,48.71
2023-04-19T14:58:29.407Z,48.59
2023-04-19T15:01:31.064Z,48.85
2023-04-19T15:04:38.252Z,48.68
2023-04-19T15:07:41.991Z,48.12
2023-04-19T15:10:43.504Z,47.29
2023-04-19T15:13:44.979Z,46.68
2023-04-19T15:16:46.814Z,46.20
2023-04-19T15:19:48.342Z,45.95
2023-04-19T15:22:49.912Z,45.62
2023-04-19T15:25:52.287Z,45.32
2023-04-19T15:28:55.894Z,45.25
2023-04-19T15:31:57.528Z,45.55
2023-04-19T15:34:59.180Z,45.90
2023-04-19T15:38:00.794Z,46.81
2023-04-19T15:41:02.376Z,47.79
2023-04-19T15:44:03.911Z,48.14
2023-04-19T15:47:05.748Z,48.66
2023-04-19T15:50:07.914Z,49.02
2023-04-19T15:53:09.997Z,49.49
2023-04-19T15:56:11.666Z,50.13
2023-04-19T15:59:13.253Z,50.68
2023-04-19T16:02:15.050Z,50.82
2023-04-19T16:05:16.694Z,51.21
2023-04-19T16:08:21.884Z,51.39
2023-04-19T16:11:23.728Z,51.80
2023-04-19T16:14:25.301Z,51.91
2023-04-19T16:17:26.819Z,52.02
2023-04-19T16:20:28.484Z,52.70
2023-04-19T16:23:30.305Z,53.73
2023-04-19T16:26:31.840Z,56.27
2023-04-19T16:29:33.672Z,57.17
2023-04-19T16:32:35.161Z,57.59
2023-04-19T16:35:36.759Z,58.36
2023-04-19T16:38:38.331Z,59.44
2023-04-19T16:41:39.926Z,59.99
2023-04-19T16:44:41.486Z,60.45
2023-04-19T16:47:45.712Z,61.27
2023-04-19T16:50:49.323Z,61.92
2023-04-19T16:53:50.884Z,62.12
2023-04-19T16:56:52.479Z,62.65
2023-04-19T16:59:54.029Z,62.76
2023-04-19T17:02:55.726Z,63.77
2023-04-19T17:05:58.010Z,63.90
2023-04-19T17:09:02.004Z,64.24
2023-04-19T17:12:03.799Z,64.22
2023-04-19T17:15:05.949Z,64.06
2023-04-19T17:18:07.629Z,64.06
2023-04-19T17:21:09.156Z,64.18
2023-04-19T17:24:10.732Z,64.33
2023-04-19T17:27:12.183Z,64.69
2023-04-19T17:30:13.855Z,65.04
2023-04-19T17:33:15.368Z,65.13
2023-04-19T17:36:18.546Z,65.53
2023-04-19T17:39:20.182Z,65.62
2023-04-19T17:42:21.631Z,65.87
2023-04-19T17:45:24.996Z,66.24
2023-04-19T17:48:26.514Z,66.83
2023-04-19T17:51:28.116Z,66.84
2023-04-19T17:54:30.275Z,66.91
2023-04-19T17:57:34.086Z,66.84
2023-04-19T18:00:35.578Z,66.41
2023-04-19T18:03:37.959Z,65.96
2023-04-19T18:06:39.650Z,65.92
2023-04-19T18:09:41.913Z,65.93
2023-04-19T18:12:43.465Z,65.74
2023-04-19T18:15:44.970Z,64.65
2023-04-19T18:18:46.549Z,63.56
2023-04-19T18:21:48.072Z,62.45
2023-04-19T18:24:51.141Z,62.45
2023-04-19T18:27:52.720Z,62.10
2023-04-19T18:30:54.368Z,61.64
2023-04-19T18:33:55.985Z,61.95
2023-04-19T18:37:01.472Z,62.29
2023-04-19T18:40:06.857Z,62.93
2023-04-19T18:43:08.361Z,63.16
2023-04-19T18:46:10.052Z,63.72
2023-04-19T18:49:11.748Z,63.88
2023-04-19T18:52:14.930Z,63.15
2023-04-19T18:55:16.586Z,62.28
2023-04-19T18:58:18.620Z,62.03
2023-04-19T19:01:20.998Z,62.24
2023-04-19T19:07:36.161Z,62.98
2023-04-19T19:11:12.660Z,63.52
2023-04-19T19:13:59.581Z,63.10
2023-04-19T19:17:04.215Z,61.84
2023-04-19T19:20:07.239Z,61.00
2023-04-19T19:23:08.795Z,60.83
2023-04-19T19:26:13.034Z,61.01
2023-04-19T19:29:16.548Z,61.80
2023-04-19T19:32:19.205Z,61.55
2023-04-19T19:35:20.787Z,61.17
2023-04-19T19:38:22.293Z,61.24
2023-04-19T19:41:58.653Z,61.46
2023-04-19T19:44:45.374Z,61.11
2023-04-19T19:47:49.543Z,61.17
2023-04-19T19:53:56.891Z,61.64
2023-04-19T20:00:22.877Z,61.71
2023-04-19T20:03:36.219Z,61.58
2023-04-19T20:07:24.859Z,61.22
2023-04-19T20:10:00.819Z,61.43
2023-04-19T20:13:02.449Z,61.40
2023-04-19T20:16:04.082Z,61.33
2023-04-19T20:19:09.978Z,61.40
2023-04-19T20:22:11.607Z,62.23
2023-04-19T20:25:13.490Z,62.94
2023-04-19T20:28:15.310Z,63.38
2023-04-19T20:31:16.795Z,64.06
2023-04-19T20:34:18.365Z,64.72
2023-04-19T20:37:23.371Z,64.43
2023-04-19T20:40:24.940Z,63.18
2023-04-19T20:43:26.368Z,62.20
2023-04-19T20:46:28.197Z,62.90
2023-04-19T20:49:29.693Z,63.83
2023-04-19T20:52:31.218Z,64.35
2023-04-19T20:55:32.791Z,64.98
2023-04-19T20:58:34.580Z,65.26
2023-04-19T21:01:36.570Z,65.55
2023-04-19T21:04:38.266Z,66.44
2023-04-19T21:07:39.799Z,66.82
2023-04-19T21:10:41.406Z,66.44
2023-04-19T21:13:42.976Z,66.19
2023-04-19T21:16:44.435Z,65.97
2023-04-19T21:19:46.043Z,66.23
2023-04-19T21:22:47.500Z,66.71
2023-04-19T21:25:49.393Z,67.01
2023-04-19T21:28:51.455Z,66.58
2023-04-19T21:31:53.051Z,66.70
2023-04-19T21:34:54.666Z,66.71
2023-04-19T21:37:56.220Z,65.53
2023-04-19T21:40:57.726Z,65.07
2023-04-19T21:43:59.255Z,64.74
2023-04-19T21:47:01.182Z,64.34
2023-04-19T21:50:03.224Z,64.56
2023-04-19T21:53:04.782Z,64.98
2023-04-19T21:56:06.396Z,65.10
2023-04-19T21:59:07.986Z,65.70
2023-04-19T22:02:09.546Z,66.95
2023-04-19T22:05:11.603Z,67.67
2023-04-19T22:08:13.305Z,67.34
2023-04-19T22:11:15.514Z,67.78
2023-04-19T22:14:19.681Z,67.99
2023-04-19T22:17:21.423Z,67.89
2023-04-19T22:20:24.244Z,67.86
2023-04-19T22:23:26.969Z,68.21
2023-04-19T22:26:31.242Z,68.44
2023-04-19T22:29:34.274Z,68.87
2023-04-19T22:32:35.847Z,68.32
2023-04-19T22:35:37.400Z,68.54
2023-04-19T22:38:38.950Z,68.76
2023-04-19T22:41:40.456Z,68.49
2023-04-19T22:44:41.999Z,68.90
2023-04-19T22:47:43.578Z,68.98
2023-04-19T22:50:45.531Z,69.13
2023-04-19T22:53:47.075Z,69.05
2023-04-19T22:56:48.623Z,68.88
2023-04-19T22:59:50.145Z,68.32
2023-04-19T23:02:51.874Z,68.62
2023-04-19T23:05:54.254Z,68.38
2023-04-19T23:08:56.294Z,68.76
2023-04-19T23:11:58.635Z,69.17
2023-04-19T23:15:00.159Z,68.32
2023-04-19T23:18:02.298Z,68.03
2023-04-19T23:21:04.555Z,67.88
2023-04-19T23:24:06.310Z,68.45
2023-04-19T23:27:07.832Z,68.40
2023-04-19T23:30:09.563Z,68.24
2023-04-19T23:33:11.292Z,65.14
2023-04-19T23:36:12.802Z,62.97
2023-04-19T23:39:16.307Z,62.61
2023-04-19T23:42:18.020Z,62.15
2023-04-19T23:45:19.656Z,61.86
2023-04-19T23:48:21.120Z,61.34
2023-04-19T23:51:22.739Z,60.99
2023-04-19T23:54:26.228Z,60.37
2023-04-19T23:57:27.789Z,60.07
